Grimstead, Virginia
Current Conditions -  °F | °C
As of 9:35 PM on Sunday 21 Dec 2014 (Local Time) from KW75 Reporting Station
Scattered Clouds Scattered Clouds  
Wind Chill:   Ceiling: Unl
Heat Index:   Visibility: 10mi
Dew Point: -2°   Wind: 0mph
Humidity: 84%   Direction: NA
Pressure: 30.31"   Gusts: NA
Location:  37.5°N, 76.3°W
Report Text: KW75 220235Z AUTO 00000KT 10SM SCT050 00/M02 A3031 RMK AO1 T00031021
Loading
Personal Weather Stations






























Interactive Weather Map New forecast layout! Learn more

10-Day Weather Forecast

Advertisements
Track Severe Weather on mobile